createdAt,value
2019-04-24T00:01:26.087Z,6.20
2019-04-24T00:04:09.124Z,6.23
2019-04-24T00:06:52.201Z,6.77
2019-04-24T00:12:24.498Z,7.70
2019-04-24T00:17:57.291Z,7.70
2019-04-24T00:20:16.443Z,7.60
2019-04-24T00:22:37.508Z,7.87
2019-04-24T00:25:09.174Z,8.13
2019-04-24T00:28:06.777Z,7.77
2019-04-24T00:30:24.935Z,7.87
2019-04-24T00:32:57.164Z,7.73
2019-04-24T00:38:02.424Z,7.50
2019-04-24T00:40:17.826Z,8.10
2019-04-24T00:42:59.147Z,8.27
2019-04-24T00:45:40.961Z,8.17
2019-04-24T00:48:07.082Z,7.33
2019-04-24T00:50:23.527Z,8.60
2019-04-24T00:55:24.822Z,8.20
2019-04-24T00:58:07.700Z,7.30
2019-04-24T01:00:55.116Z,8.83
2019-04-24T01:03:52.376Z,7.33
2019-04-24T01:06:26.984Z,8.40
2019-04-24T01:09:04.883Z,8.40
2019-04-24T01:11:51.785Z,8.03
2019-04-24T01:14:12.428Z,7.57
2019-04-24T01:19:12.795Z,8.60
2019-04-24T01:26:51.335Z,7.70
2019-04-24T01:29:25.709Z,8.13
2019-04-24T01:32:01.034Z,7.80
2019-04-24T01:34:51.050Z,8.13
2019-04-24T01:37:43.806Z,8.20
2019-04-24T01:40:32.020Z,7.53
2019-04-24T01:43:05.694Z,8.60
2019-04-24T01:45:28.623Z,7.63
2019-04-24T01:48:16.383Z,8.47
2019-04-24T01:50:32.732Z,8.60
2019-04-24T01:53:26.500Z,7.83
2019-04-24T01:55:32.071Z,8.30
2019-04-24T01:58:13.809Z,7.97
2019-04-24T02:03:32.989Z,8.17
2019-04-24T02:06:12.951Z,8.03
2019-04-24T02:08:39.120Z,8.00
2019-04-24T02:12:00.174Z,7.93
2019-04-24T02:14:24.299Z,7.93
2019-04-24T02:19:29.524Z,8.57
2019-04-24T02:21:48.042Z,7.83
2019-04-24T02:27:02.935Z,8.63
2019-04-24T02:29:27.972Z,7.10
2019-04-24T02:32:25.602Z,7.50
2019-04-24T02:34:52.727Z,8.40
2019-04-24T02:40:12.772Z,8.60
2019-04-24T02:43:21.236Z,8.37
2019-04-24T02:48:30.991Z,8.13
2019-04-24T02:50:48.997Z,8.40
2019-04-24T02:53:36.322Z,7.93
2019-04-24T02:55:56.338Z,8.03
2019-04-24T02:58:35.915Z,7.80
2019-04-24T03:03:37.886Z,8.50
2019-04-24T03:06:13.848Z,7.90
2019-04-24T03:08:53.880Z,7.97
2019-04-24T03:11:12.420Z,8.03
2019-04-24T03:14:11.288Z,8.80
2019-04-24T03:24:45.713Z,8.80
2019-04-24T03:27:35.894Z,8.50
2019-04-24T03:30:02.356Z,8.27
2019-04-24T03:40:55.313Z,8.13
2019-04-24T03:51:42.418Z,7.20
2019-04-24T03:53:57.622Z,7.57
2019-04-24T03:56:14.107Z,8.73
2019-04-24T03:59:16.266Z,7.93
2019-04-24T04:01:45.094Z,8.27
2019-04-24T04:04:13.597Z,8.60
2019-04-24T04:11:57.901Z,9.87
2019-04-24T04:14:24.838Z,7.93
2019-04-24T04:17:01.609Z,8.37
2019-04-24T04:19:35.323Z,7.77
2019-04-24T04:22:07.249Z,8.60
2019-04-24T04:24:40.192Z,7.33
2019-04-24T04:30:01.464Z,7.40
2019-04-24T04:35:45.162Z,6.90
2019-04-24T04:48:31.393Z,7.93
2019-04-24T04:51:03.017Z,7.73
2019-04-24T04:58:58.816Z,8.93
2019-04-24T05:07:24.607Z,7.13
2019-04-24T05:17:50.499Z,8.23
2019-04-24T05:19:38.476Z,7.83
2019-04-24T05:25:27.815Z,7.70
2019-04-24T05:27:45.192Z,7.20
2019-04-24T05:30:27.018Z,8.10
2019-04-24T05:33:25.049Z,8.37
2019-04-24T05:35:49.952Z,7.73
2019-04-24T05:41:32.862Z,7.80
2019-04-24T05:46:39.431Z,7.00
2019-04-24T05:49:04.971Z,7.87
2019-04-24T05:51:42.642Z,7.23
2019-04-24T05:54:26.727Z,8.23
2019-04-24T05:59:50.020Z,8.17
2019-04-24T06:02:37.229Z,7.07
2019-04-24T06:05:06.217Z,7.43
2019-04-24T06:07:54.995Z,7.90
2019-04-24T06:10:39.930Z,7.67
2019-04-24T06:13:42.031Z,7.40
2019-04-24T06:16:25.117Z,7.13
2019-04-24T06:19:20.846Z,7.57
2019-04-24T06:21:48.387Z,7.23
2019-04-24T06:26:52.315Z,7.20
2019-04-24T06:29:38.009Z,7.03
2019-04-24T06:34:53.455Z,7.00
2019-04-24T06:40:39.486Z,6.33
2019-04-24T06:43:04.601Z,6.77
2019-04-24T06:48:07.234Z,6.67
2019-04-24T07:01:09.906Z,7.27
2019-04-24T07:04:09.752Z,11.83
2019-04-24T07:09:41.304Z,5.03
2019-04-24T07:12:29.701Z,6.67
2019-04-24T07:15:04.624Z,4.40
2019-04-24T07:17:40.118Z,4.40
2019-04-24T07:20:15.852Z,4.00
2019-04-24T07:23:26.361Z,4.30
2019-04-24T07:28:30.434Z,3.90
2019-04-24T07:31:42.929Z,4.03
2019-04-24T07:34:08.714Z,3.97
2019-04-24T07:39:43.732Z,3.27
2019-04-24T07:42:10.218Z,3.83
2019-04-24T07:44:37.606Z,3.67
2019-04-24T07:49:46.299Z,3.40
2019-04-24T07:54:54.944Z,3.43
2019-04-24T07:57:29.038Z,3.10
2019-04-24T08:00:10.019Z,3.40
2019-04-24T08:05:29.500Z,3.20
2019-04-24T08:08:21.404Z,2.80
2019-04-24T08:16:08.918Z,3.10
2019-04-24T08:18:32.876Z,3.20
2019-04-24T08:21:14.229Z,3.10
2019-04-24T08:23:44.493Z,3.60
2019-04-24T08:26:10.085Z,3.37
2019-04-24T08:29:04.289Z,3.00
2019-04-24T08:31:50.462Z,3.20
2019-04-24T08:36:51.658Z,3.27
2019-04-24T08:40:02.468Z,2.60
2019-04-24T08:43:06.561Z,2.90
2019-04-24T08:45:46.442Z,3.10
2019-04-24T08:53:57.110Z,3.10
2019-04-24T08:56:29.439Z,2.73
2019-04-24T09:01:55.569Z,3.80
2019-04-24T09:04:49.760Z,3.10
2019-04-24T09:06:55.511Z,2.90
2019-04-24T09:10:27.991Z,2.80
2019-04-24T09:15:36.987Z,3.23
2019-04-24T09:18:03.465Z,6.67
2019-04-24T09:20:43.946Z,2.40
2019-04-24T09:23:21.912Z,2.77
2019-04-24T09:31:26.521Z,2.90
2019-04-24T09:37:10.890Z,2.30
2019-04-24T09:45:41.182Z,2.73
2019-04-24T09:48:42.229Z,2.77
2019-04-24T09:53:42.214Z,2.20
2019-04-24T09:58:45.604Z,2.00
2019-04-24T10:04:13.775Z,2.40
2019-04-24T10:06:59.234Z,6.90
2019-04-24T10:09:04.579Z,2.23
2019-04-24T10:14:12.519Z,10.07
2019-04-24T10:19:49.204Z,3.00
2019-04-24T10:22:09.241Z,2.60
2019-04-24T10:25:01.772Z,2.53
2019-04-24T10:27:26.825Z,2.50
2019-04-24T10:29:59.729Z,2.57
2019-04-24T10:32:58.010Z,2.37
2019-04-24T10:35:43.239Z,2.33
2019-04-24T10:38:40.954Z,2.03
2019-04-24T10:41:26.166Z,3.40
2019-04-24T10:44:39.077Z,3.37
2019-04-24T10:50:01.351Z,2.10
2019-04-24T10:52:45.131Z,2.67
2019-04-24T10:55:27.498Z,3.37
2019-04-24T10:58:01.790Z,2.40
2019-04-24T11:00:36.992Z,5.93
2019-04-24T11:03:20.928Z,3.40
2019-04-24T11:05:52.365Z,8.57
2019-04-24T11:14:17.364Z,4.33
2019-04-24T11:20:08.484Z,3.33
2019-04-24T11:23:08.695Z,2.37
2019-04-24T11:29:17.011Z,2.83
2019-04-24T11:31:52.947Z,2.57
2019-04-24T11:35:04.347Z,3.10
2019-04-24T11:37:44.063Z,6.30
2019-04-24T11:40:36.738Z,2.23
2019-04-24T11:42:54.651Z,2.60
2019-04-24T11:46:00.856Z,2.80
2019-04-24T11:49:03.486Z,2.50
2019-04-24T11:51:49.325Z,4.53
2019-04-24T11:54:01.816Z,2.63
2019-04-24T11:57:01.988Z,2.50
2019-04-24T11:59:10.860Z,2.40
2019-04-24T12:08:00.404Z,4.63
2019-04-24T12:13:18.934Z,2.53
2019-04-24T12:16:11.025Z,2.57
2019-04-24T12:26:37.884Z,2.13
2019-04-24T12:32:09.874Z,6.20
2019-04-24T12:35:14.283Z,1.53
2019-04-24T12:37:33.203Z,3.70
2019-04-24T12:43:07.169Z,2.40
2019-04-24T12:45:50.598Z,2.03
2019-04-24T12:48:06.488Z,3.87
2019-04-24T12:50:50.769Z,3.37
2019-04-24T12:53:30.628Z,9.33
2019-04-24T12:56:05.476Z,2.20
2019-04-24T12:59:17.168Z,3.67
2019-04-24T13:02:26.917Z,2.03
2019-04-24T13:08:24.383Z,2.70
2019-04-24T13:11:23.036Z,3.77
2019-04-24T13:19:39.077Z,1.83
2019-04-24T13:29:23.598Z,3.73
2019-04-24T13:35:01.815Z,1.90
2019-04-24T13:37:41.363Z,1.43
2019-04-24T13:39:58.156Z,1.37
2019-04-24T13:42:38.580Z,2.00
2019-04-24T13:48:07.303Z,0.80
2019-04-24T13:50:34.465Z,1.20
2019-04-24T13:53:27.426Z,1.87
2019-04-24T14:00:56.343Z,4.20
2019-04-24T14:03:38.622Z,1.63
2019-04-24T14:08:37.908Z,0.90
2019-04-24T14:11:31.423Z,1.03
2019-04-24T14:13:55.703Z,1.93
2019-04-24T14:23:02.606Z,1.37
2019-04-24T14:25:40.261Z,2.73
2019-04-24T14:31:19.096Z,1.90
2019-04-24T14:33:55.893Z,4.60
2019-04-24T14:37:05.210Z,6.43
2019-04-24T14:43:47.751Z,10.07
2019-04-24T14:48:56.904Z,1.77
2019-04-24T14:52:05.765Z,2.30
2019-04-24T14:54:41.073Z,3.43
2019-04-24T15:00:24.309Z,1.13
2019-04-24T15:03:21.387Z,2.77
2019-04-24T15:09:11.746Z,1.20
2019-04-24T15:11:34.152Z,1.53
2019-04-24T15:17:05.232Z,6.00
2019-04-24T15:20:13.599Z,1.20
2019-04-24T15:22:58.224Z,1.67
2019-04-24T15:25:36.578Z,2.90
2019-04-24T15:30:43.930Z,2.70
2019-04-24T15:36:25.151Z,1.50
2019-04-24T15:39:08.321Z,2.40
2019-04-24T15:41:42.148Z,3.93
2019-04-24T15:44:08.700Z,4.43
2019-04-24T15:46:48.464Z,2.77
2019-04-24T15:49:19.549Z,2.00
2019-04-24T15:51:29.617Z,2.43
2019-04-24T15:53:49.910Z,4.10
2019-04-24T15:56:20.193Z,5.57
2019-04-24T15:59:00.796Z,3.60
2019-04-24T16:04:40.228Z,2.37
2019-04-24T16:06:45.084Z,1.80
2019-04-24T16:12:25.068Z,2.23
2019-04-24T16:15:58.709Z,2.40
2019-04-24T16:33:25.903Z,3.10
2019-04-24T16:59:21.822Z,3.30
2019-04-24T17:04:59.828Z,4.20
2019-04-24T17:07:48.550Z,4.70
2019-04-24T17:16:39.892Z,4.37
2019-04-24T17:27:40.694Z,2.47
2019-04-24T17:32:49.965Z,3.57
2019-04-24T17:35:24.239Z,3.10
2019-04-24T17:37:20.980Z,2.80
2019-04-24T17:40:13.033Z,5.47
2019-04-24T17:46:12.268Z,6.63
2019-04-24T17:48:46.962Z,3.33
2019-04-24T17:54:27.041Z,3.23
2019-04-24T17:59:06.153Z,3.70
2019-04-24T18:01:36.986Z,5.20
2019-04-24T18:04:08.554Z,3.70
2019-04-24T18:06:42.132Z,4.80
2019-04-24T18:14:53.864Z,7.00
2019-04-24T18:17:24.965Z,3.57
2019-04-24T18:19:55.230Z,4.07
2019-04-24T18:22:36.525Z,4.77
2019-04-24T18:25:23.429Z,5.57
2019-04-24T18:27:56.277Z,7.23
2019-04-24T18:30:32.615Z,4.40
2019-04-24T18:33:07.382Z,11.33
2019-04-24T18:35:42.382Z,4.80
2019-04-24T18:38:16.971Z,4.80
2019-04-24T18:40:45.630Z,4.20
2019-04-24T18:43:16.591Z,4.50
2019-04-24T18:45:47.655Z,5.03
2019-04-24T18:48:19.211Z,5.03
2019-04-24T18:50:51.680Z,5.27
2019-04-24T18:53:21.942Z,4.87
2019-04-24T18:56:12.328Z,5.73
2019-04-24T19:07:48.778Z,4.83
2019-04-24T19:10:19.476Z,4.50
2019-04-24T19:13:08.859Z,5.27
2019-04-24T19:16:19.550Z,5.73
2019-04-24T19:21:31.571Z,4.90
2019-04-24T19:24:01.992Z,4.83
2019-04-24T19:26:32.078Z,6.40
2019-04-24T19:32:27.065Z,6.33
2019-04-24T19:34:58.548Z,5.10
2019-04-24T19:37:31.176Z,5.10
2019-04-24T19:43:02.922Z,4.67
2019-04-24T20:15:44.233Z,5.83
2019-04-24T20:18:54.021Z,5.63
2019-04-24T20:21:24.894Z,5.87
2019-04-24T20:24:07.535Z,6.13
2019-04-24T20:27:17.805Z,6.10
2019-04-24T20:29:50.644Z,11.93
2019-04-24T20:32:22.175Z,5.60
2019-04-24T20:38:14.615Z,18.73
2019-04-24T20:41:15.849Z,20.13
2019-04-24T21:02:12.419Z,8.63
2019-04-24T21:04:54.663Z,3.90
2019-04-24T21:10:43.055Z,1.57
2019-04-24T21:19:12.806Z,5.50
2019-04-24T21:24:46.664Z,2.87
2019-04-24T21:27:17.430Z,3.43
2019-04-24T21:29:47.592Z,1.23
2019-04-24T21:32:18.099Z,0.90
2019-04-24T21:34:48.170Z,1.30
2019-04-24T21:37:21.098Z,0.70
2019-04-24T21:39:53.620Z,1.73
2019-04-24T21:42:24.596Z,0.80
2019-04-24T21:44:55.002Z,1.53
2019-04-24T21:50:56.415Z,0.80
2019-04-24T21:53:36.888Z,1.33
2019-04-24T21:59:27.600Z,2.17
2019-04-24T22:05:15.304Z,0.80
2019-04-24T22:10:45.346Z,0.83
2019-04-24T22:13:17.929Z,0.70
2019-04-24T22:15:48.419Z,1.27
2019-04-24T22:18:19.447Z,1.13
2019-04-24T22:20:52.466Z,1.30
2019-04-24T22:23:43.272Z,1.30
2019-04-24T22:26:28.030Z,1.30
2019-04-24T22:29:37.776Z,0.60
2019-04-24T22:35:28.605Z,1.17
2019-04-24T22:38:37.922Z,0.70
2019-04-24T22:44:20.698Z,1.47
2019-04-24T22:52:49.013Z,1.37
2019-04-24T22:55:39.338Z,2.13
2019-04-24T22:58:09.617Z,0.60
2019-04-24T23:00:40.332Z,0.83
2019-04-24T23:03:10.809Z,0.67
2019-04-24T23:05:40.995Z,1.10
2019-04-24T23:08:12.910Z,0.90
2019-04-24T23:10:45.745Z,0.80
2019-04-24T23:13:16.578Z,1.20
2019-04-24T23:15:46.759Z,0.67
2019-04-24T23:18:18.850Z,0.70
2019-04-24T23:21:02.523Z,0.77
2019-04-24T23:23:49.424Z,0.70
2019-04-24T23:26:49.682Z,2.17
2019-04-24T23:32:37.065Z,2.00
2019-04-24T23:35:18.561Z,0.83
2019-04-24T23:38:07.667Z,0.90
2019-04-24T23:40:38.244Z,0.60
2019-04-24T23:43:08.479Z,0.80
2019-04-24T23:45:38.808Z,0.80
2019-04-24T23:48:08.919Z,0.80
2019-04-24T23:50:39.232Z,1.33
